sensor_id;sensor_type;location;lat;lon;timestamp;P1;durP1;ratioP1;P2;durP2;ratioP2
41653;SDS011;68687;52.030;7.110;2023-04-29T00:02:06;99.07;;;45.72;;
41653;SDS011;68687;52.030;7.110;2023-04-29T00:04:31;110.07;;;48.70;;
41653;SDS011;68687;52.030;7.110;2023-04-29T00:06:57;102.93;;;43.78;;
41653;SDS011;68687;52.030;7.110;2023-04-29T00:09:22;102.05;;;43.97;;
41653;SDS011;68687;52.030;7.110;2023-04-29T00:11:51;110.30;;;43.53;;
41653;SDS011;68687;52.030;7.110;2023-04-29T00:14:16;100.22;;;41.60;;
41653;SDS011;68687;52.030;7.110;2023-04-29T00:16:44;100.35;;;43.65;;
41653;SDS011;68687;52.030;7.110;2023-04-29T00:19:09;98.68;;;45.17;;
41653;SDS011;68687;52.030;7.110;2023-04-29T00:21:35;95.75;;;42.80;;
41653;SDS011;68687;52.030;7.110;2023-04-29T00:24:00;99.38;;;43.78;;
41653;SDS011;68687;52.030;7.110;2023-04-29T00:26:32;92.03;;;41.53;;
41653;SDS011;68687;52.030;7.110;2023-04-29T00:29:00;91.22;;;41.60;;
41653;SDS011;68687;52.030;7.110;2023-04-29T00:31:25;98.05;;;42.20;;
41653;SDS011;68687;52.030;7.110;2023-04-29T00:33:51;84.03;;;40.10;;
41653;SDS011;68687;52.030;7.110;2023-04-29T00:36:16;89.10;;;41.00;;
41653;SDS011;68687;52.030;7.110;2023-04-29T00:38:41;90.63;;;40.00;;
41653;SDS011;68687;52.030;7.110;2023-04-29T00:41:07;78.68;;;37.40;;
41653;SDS011;68687;52.030;7.110;2023-04-29T00:43:33;85.68;;;38.95;;
41653;SDS011;68687;52.030;7.110;2023-04-29T00:45:58;85.55;;;38.05;;
41653;SDS011;68687;52.030;7.110;2023-04-29T00:48:23;80.47;;;37.15;;
41653;SDS011;68687;52.030;7.110;2023-04-29T00:50:49;87.80;;;39.33;;
41653;SDS011;68687;52.030;7.110;2023-04-29T00:53:18;73.38;;;35.58;;
41653;SDS011;68687;52.030;7.110;2023-04-29T00:55:45;75.72;;;35.85;;
41653;SDS011;68687;52.030;7.110;2023-04-29T00:58:14;78.70;;;36.65;;
41653;SDS011;68687;52.030;7.110;2023-04-29T01:00:41;76.13;;;36.30;;
41653;SDS011;68687;52.030;7.110;2023-04-29T01:03:10;72.07;;;35.10;;
41653;SDS011;68687;52.030;7.110;2023-04-29T01:05:40;73.35;;;36.30;;
41653;SDS011;68687;52.030;7.110;2023-04-29T01:08:09;69.47;;;34.88;;
41653;SDS011;68687;52.030;7.110;2023-04-29T01:13:29;63.83;;;32.95;;
41653;SDS011;68687;52.030;7.110;2023-04-29T01:16:07;60.28;;;32.08;;
41653;SDS011;68687;52.030;7.110;2023-04-29T01:18:49;62.30;;;32.63;;
41653;SDS011;68687;52.030;7.110;2023-04-29T01:21:25;61.40;;;31.98;;
41653;SDS011;68687;52.030;7.110;2023-04-29T01:23:52;57.15;;;30.42;;
41653;SDS011;68687;52.030;7.110;2023-04-29T01:26:20;58.85;;;30.77;;
41653;SDS011;68687;52.030;7.110;2023-04-29T01:28:53;64.82;;;33.03;;
41653;SDS011;68687;52.030;7.110;2023-04-29T01:31:27;57.20;;;31.40;;
41653;SDS011;68687;52.030;7.110;2023-04-29T01:37:13;60.97;;;31.02;;
41653;SDS011;68687;52.030;7.110;2023-04-29T01:42:23;71.97;;;35.67;;
41653;SDS011;68687;52.030;7.110;2023-04-29T01:44:52;66.07;;;35.83;;
41653;SDS011;68687;52.030;7.110;2023-04-29T01:47:19;80.28;;;41.13;;
41653;SDS011;68687;52.030;7.110;2023-04-29T01:49:45;73.72;;;39.70;;
41653;SDS011;68687;52.030;7.110;2023-04-29T01:52:11;77.05;;;39.72;;
41653;SDS011;68687;52.030;7.110;2023-04-29T01:54:36;82.30;;;43.78;;
41653;SDS011;68687;52.030;7.110;2023-04-29T01:57:02;81.35;;;41.63;;
41653;SDS011;68687;52.030;7.110;2023-04-29T01:59:31;83.20;;;42.17;;
41653;SDS011;68687;52.030;7.110;2023-04-29T02:01:56;85.10;;;43.60;;
41653;SDS011;68687;52.030;7.110;2023-04-29T02:04:23;86.82;;;44.45;;
41653;SDS011;68687;52.030;7.110;2023-04-29T02:06:49;85.82;;;43.17;;
41653;SDS011;68687;52.030;7.110;2023-04-29T02:09:16;88.35;;;44.63;;
41653;SDS011;68687;52.030;7.110;2023-04-29T02:11:41;88.30;;;44.47;;
41653;SDS011;68687;52.030;7.110;2023-04-29T02:14:06;89.95;;;44.72;;
41653;SDS011;68687;52.030;7.110;2023-04-29T02:16:32;88.55;;;44.55;;
41653;SDS011;68687;52.030;7.110;2023-04-29T02:18:57;89.53;;;43.35;;
41653;SDS011;68687;52.030;7.110;2023-04-29T02:21:22;85.55;;;42.95;;
41653;SDS011;68687;52.030;7.110;2023-04-29T02:23:51;94.70;;;45.33;;
41653;SDS011;68687;52.030;7.110;2023-04-29T02:26:18;80.28;;;40.75;;
41653;SDS011;68687;52.030;7.110;2023-04-29T02:28:47;80.78;;;43.00;;
41653;SDS011;68687;52.030;7.110;2023-04-29T02:31:12;83.97;;;43.28;;
41653;SDS011;68687;52.030;7.110;2023-04-29T02:33:37;85.38;;;42.33;;
41653;SDS011;68687;52.030;7.110;2023-04-29T02:36:03;79.95;;;43.00;;
41653;SDS011;68687;52.030;7.110;2023-04-29T02:38:28;82.85;;;42.03;;
41653;SDS011;68687;52.030;7.110;2023-04-29T02:40:57;81.45;;;41.25;;
41653;SDS011;68687;52.030;7.110;2023-04-29T02:43:22;77.43;;;41.40;;
41653;SDS011;68687;52.030;7.110;2023-04-29T02:45:48;76.53;;;39.33;;
41653;SDS011;68687;52.030;7.110;2023-04-29T02:48:16;72.10;;;39.75;;
41653;SDS011;68687;52.030;7.110;2023-04-29T02:50:41;70.38;;;39.92;;
41653;SDS011;68687;52.030;7.110;2023-04-29T02:53:07;76.05;;;40.40;;
41653;SDS011;68687;52.030;7.110;2023-04-29T02:55:35;76.63;;;39.35;;
41653;SDS011;68687;52.030;7.110;2023-04-29T02:58:00;75.95;;;40.08;;
41653;SDS011;68687;52.030;7.110;2023-04-29T03:00:25;73.82;;;39.42;;
41653;SDS011;68687;52.030;7.110;2023-04-29T03:02:51;72.18;;;38.17;;
41653;SDS011;68687;52.030;7.110;2023-04-29T03:05:16;73.35;;;39.90;;
41653;SDS011;68687;52.030;7.110;2023-04-29T03:07:44;73.63;;;37.80;;
41653;SDS011;68687;52.030;7.110;2023-04-29T03:10:09;76.35;;;38.78;;
41653;SDS011;68687;52.030;7.110;2023-04-29T03:12:36;68.47;;;39.50;;
41653;SDS011;68687;52.030;7.110;2023-04-29T03:15:05;67.68;;;38.53;;
41653;SDS011;68687;52.030;7.110;2023-04-29T03:17:31;67.10;;;36.92;;
41653;SDS011;68687;52.030;7.110;2023-04-29T03:19:57;70.78;;;38.28;;
41653;SDS011;68687;52.030;7.110;2023-04-29T03:22:23;64.70;;;37.25;;
41653;SDS011;68687;52.030;7.110;2023-04-29T03:24:54;67.18;;;36.60;;
41653;SDS011;68687;52.030;7.110;2023-04-29T03:27:23;61.47;;;34.90;;
41653;SDS011;68687;52.030;7.110;2023-04-29T03:29:48;66.50;;;36.17;;
41653;SDS011;68687;52.030;7.110;2023-04-29T03:32:13;62.78;;;36.67;;
41653;SDS011;68687;52.030;7.110;2023-04-29T03:34:41;60.55;;;36.53;;
41653;SDS011;68687;52.030;7.110;2023-04-29T03:37:06;66.15;;;37.90;;
41653;SDS011;68687;52.030;7.110;2023-04-29T03:39:38;56.28;;;33.50;;
41653;SDS011;68687;52.030;7.110;2023-04-29T03:42:06;59.38;;;34.83;;
41653;SDS011;68687;52.030;7.110;2023-04-29T03:44:31;63.80;;;34.92;;
41653;SDS011;68687;52.030;7.110;2023-04-29T03:46:57;59.97;;;34.88;;
41653;SDS011;68687;52.030;7.110;2023-04-29T03:49:22;59.92;;;34.25;;
41653;SDS011;68687;52.030;7.110;2023-04-29T03:51:47;68.85;;;37.92;;
41653;SDS011;68687;52.030;7.110;2023-04-29T03:54:16;57.97;;;34.10;;
41653;SDS011;68687;52.030;7.110;2023-04-29T03:56:41;62.35;;;34.00;;
41653;SDS011;68687;52.030;7.110;2023-04-29T03:59:07;60.10;;;34.67;;
41653;SDS011;68687;52.030;7.110;2023-04-29T04:01:35;63.55;;;34.83;;
41653;SDS011;68687;52.030;7.110;2023-04-29T04:04:01;62.83;;;36.53;;
41653;SDS011;68687;52.030;7.110;2023-04-29T04:06:29;60.05;;;33.97;;
41653;SDS011;68687;52.030;7.110;2023-04-29T04:08:55;55.00;;;32.85;;
41653;SDS011;68687;52.030;7.110;2023-04-29T04:11:21;56.55;;;32.20;;
41653;SDS011;68687;52.030;7.110;2023-04-29T04:13:46;57.72;;;34.05;;
41653;SDS011;68687;52.030;7.110;2023-04-29T04:16:14;53.55;;;32.63;;
41653;SDS011;68687;52.030;7.110;2023-04-29T04:18:40;64.40;;;35.58;;
41653;SDS011;68687;52.030;7.110;2023-04-29T04:21:11;60.67;;;33.75;;
41653;SDS011;68687;52.030;7.110;2023-04-29T04:23:37;59.38;;;35.25;;
41653;SDS011;68687;52.030;7.110;2023-04-29T04:26:07;67.15;;;34.45;;
41653;SDS011;68687;52.030;7.110;2023-04-29T04:28:33;68.60;;;36.60;;
41653;SDS011;68687;52.030;7.110;2023-04-29T04:30:58;64.25;;;36.72;;
41653;SDS011;68687;52.030;7.110;2023-04-29T04:33:24;65.93;;;35.80;;
41653;SDS011;68687;52.030;7.110;2023-04-29T04:35:53;64.45;;;35.80;;
41653;SDS011;68687;52.030;7.110;2023-04-29T04:38:18;70.68;;;36.45;;
41653;SDS011;68687;52.030;7.110;2023-04-29T04:40:43;69.28;;;37.08;;
41653;SDS011;68687;52.030;7.110;2023-04-29T04:43:09;70.63;;;36.20;;
41653;SDS011;68687;52.030;7.110;2023-04-29T04:45:34;66.00;;;37.22;;
41653;SDS011;68687;52.030;7.110;2023-04-29T04:48:00;67.88;;;35.85;;
41653;SDS011;68687;52.030;7.110;2023-04-29T04:50:26;71.47;;;38.53;;
41653;SDS011;68687;52.030;7.110;2023-04-29T04:52:53;72.55;;;37.40;;
41653;SDS011;68687;52.030;7.110;2023-04-29T04:55:19;68.00;;;37.05;;
41653;SDS011;68687;52.030;7.110;2023-04-29T04:57:47;65.40;;;37.60;;
41653;SDS011;68687;52.030;7.110;2023-04-29T05:00:12;78.45;;;39.17;;
41653;SDS011;68687;52.030;7.110;2023-04-29T05:02:38;77.78;;;39.67;;
41653;SDS011;68687;52.030;7.110;2023-04-29T05:05:04;80.47;;;37.83;;
41653;SDS011;68687;52.030;7.110;2023-04-29T05:07:29;78.22;;;36.90;;
41653;SDS011;68687;52.030;7.110;2023-04-29T05:09:55;76.18;;;37.60;;
41653;SDS011;68687;52.030;7.110;2023-04-29T05:12:20;78.00;;;39.75;;
41653;SDS011;68687;52.030;7.110;2023-04-29T05:14:45;82.90;;;38.20;;
41653;SDS011;68687;52.030;7.110;2023-04-29T05:17:13;79.70;;;38.83;;
41653;SDS011;68687;52.030;7.110;2023-04-29T05:19:39;78.05;;;39.40;;
41653;SDS011;68687;52.030;7.110;2023-04-29T05:22:04;82.28;;;38.28;;
41653;SDS011;68687;52.030;7.110;2023-04-29T05:24:29;78.05;;;38.67;;
41653;SDS011;68687;52.030;7.110;2023-04-29T05:26:54;79.22;;;38.25;;
41653;SDS011;68687;52.030;7.110;2023-04-29T05:29:20;73.18;;;39.22;;
41653;SDS011;68687;52.030;7.110;2023-04-29T05:31:45;81.13;;;38.78;;
41653;SDS011;68687;52.030;7.110;2023-04-29T05:34:11;77.95;;;38.95;;
41653;SDS011;68687;52.030;7.110;2023-04-29T05:36:36;80.78;;;38.80;;
41653;SDS011;68687;52.030;7.110;2023-04-29T05:39:01;89.95;;;39.85;;
41653;SDS011;68687;52.030;7.110;2023-04-29T05:41:30;86.32;;;39.40;;
41653;SDS011;68687;52.030;7.110;2023-04-29T05:43:55;83.65;;;40.72;;
41653;SDS011;68687;52.030;7.110;2023-04-29T05:46:21;73.25;;;39.60;;
41653;SDS011;68687;52.030;7.110;2023-04-29T05:48:46;90.35;;;41.05;;
41653;SDS011;68687;52.030;7.110;2023-04-29T05:51:12;97.05;;;42.63;;
41653;SDS011;68687;52.030;7.110;2023-04-29T05:53:38;99.28;;;44.08;;
41653;SDS011;68687;52.030;7.110;2023-04-29T05:56:04;87.00;;;41.22;;
41653;SDS011;68687;52.030;7.110;2023-04-29T05:58:32;92.80;;;41.33;;
41653;SDS011;68687;52.030;7.110;2023-04-29T06:00:57;86.53;;;41.63;;
41653;SDS011;68687;52.030;7.110;2023-04-29T06:03:23;90.70;;;41.83;;
41653;SDS011;68687;52.030;7.110;2023-04-29T06:05:48;89.97;;;44.13;;
41653;SDS011;68687;52.030;7.110;2023-04-29T06:08:14;98.13;;;44.38;;
41653;SDS011;68687;52.030;7.110;2023-04-29T06:10:39;88.63;;;41.63;;
41653;SDS011;68687;52.030;7.110;2023-04-29T06:13:08;84.25;;;42.88;;
41653;SDS011;68687;52.030;7.110;2023-04-29T06:15:36;88.15;;;43.67;;
41653;SDS011;68687;52.030;7.110;2023-04-29T06:18:02;95.32;;;42.97;;
41653;SDS011;68687;52.030;7.110;2023-04-29T06:20:27;84.78;;;40.85;;
41653;SDS011;68687;52.030;7.110;2023-04-29T06:22:52;86.13;;;41.90;;
41653;SDS011;68687;52.030;7.110;2023-04-29T06:25:21;91.25;;;43.60;;
41653;SDS011;68687;52.030;7.110;2023-04-29T06:27:46;81.05;;;41.50;;
41653;SDS011;68687;52.030;7.110;2023-04-29T06:30:12;86.10;;;39.72;;
41653;SDS011;68687;52.030;7.110;2023-04-29T06:32:38;82.65;;;39.20;;
41653;SDS011;68687;52.030;7.110;2023-04-29T06:35:04;84.60;;;39.83;;
41653;SDS011;68687;52.030;7.110;2023-04-29T06:37:29;83.72;;;40.75;;
41653;SDS011;68687;52.030;7.110;2023-04-29T06:39:55;90.95;;;39.92;;
41653;SDS011;68687;52.030;7.110;2023-04-29T06:42:23;87.85;;;40.67;;
41653;SDS011;68687;52.030;7.110;2023-04-29T06:44:51;88.88;;;40.35;;
41653;SDS011;68687;52.030;7.110;2023-04-29T06:47:22;82.60;;;39.17;;
41653;SDS011;68687;52.030;7.110;2023-04-29T06:49:48;81.72;;;38.70;;
41653;SDS011;68687;52.030;7.110;2023-04-29T06:52:13;81.95;;;37.83;;
41653;SDS011;68687;52.030;7.110;2023-04-29T06:54:38;80.15;;;38.95;;
41653;SDS011;68687;52.030;7.110;2023-04-29T06:57:04;88.75;;;39.60;;
41653;SDS011;68687;52.030;7.110;2023-04-29T06:59:29;80.55;;;38.42;;
41653;SDS011;68687;52.030;7.110;2023-04-29T07:01:57;80.15;;;38.83;;
41653;SDS011;68687;52.030;7.110;2023-04-29T07:04:23;88.57;;;39.88;;
41653;SDS011;68687;52.030;7.110;2023-04-29T07:06:51;78.88;;;36.40;;
41653;SDS011;68687;52.030;7.110;2023-04-29T07:09:18;82.55;;;36.92;;
41653;SDS011;68687;52.030;7.110;2023-04-29T07:11:43;77.68;;;36.60;;
41653;SDS011;68687;52.030;7.110;2023-04-29T07:14:08;82.20;;;38.20;;
41653;SDS011;68687;52.030;7.110;2023-04-29T07:16:34;77.40;;;37.03;;
41653;SDS011;68687;52.030;7.110;2023-04-29T07:18:59;73.45;;;36.97;;
41653;SDS011;68687;52.030;7.110;2023-04-29T07:21:24;68.43;;;36.28;;
41653;SDS011;68687;52.030;7.110;2023-04-29T07:23:53;69.60;;;35.80;;
41653;SDS011;68687;52.030;7.110;2023-04-29T07:26:19;69.55;;;34.95;;
41653;SDS011;68687;52.030;7.110;2023-04-29T07:28:46;61.78;;;33.83;;
41653;SDS011;68687;52.030;7.110;2023-04-29T07:31:12;65.88;;;32.97;;
41653;SDS011;68687;52.030;7.110;2023-04-29T07:33:38;66.32;;;33.67;;
41653;SDS011;68687;52.030;7.110;2023-04-29T07:36:03;72.85;;;34.50;;
41653;SDS011;68687;52.030;7.110;2023-04-29T07:38:34;63.78;;;31.45;;
41653;SDS011;68687;52.030;7.110;2023-04-29T07:41:00;66.35;;;33.90;;
41653;SDS011;68687;52.030;7.110;2023-04-29T07:43:30;72.38;;;32.33;;
41653;SDS011;68687;52.030;7.110;2023-04-29T07:45:55;65.00;;;32.40;;
41653;SDS011;68687;52.030;7.110;2023-04-29T07:48:20;60.75;;;31.40;;
41653;SDS011;68687;52.030;7.110;2023-04-29T07:50:46;58.30;;;32.20;;
41653;SDS011;68687;52.030;7.110;2023-04-29T07:53:11;55.00;;;31.40;;
41653;SDS011;68687;52.030;7.110;2023-04-29T07:55:37;61.88;;;33.20;;
41653;SDS011;68687;52.030;7.110;2023-04-29T07:58:05;58.47;;;31.48;;
41653;SDS011;68687;52.030;7.110;2023-04-29T08:00:31;50.80;;;30.90;;
41653;SDS011;68687;52.030;7.110;2023-04-29T08:02:56;50.67;;;29.08;;
41653;SDS011;68687;52.030;7.110;2023-04-29T08:05:24;57.28;;;32.33;;
41653;SDS011;68687;52.030;7.110;2023-04-29T08:07:50;51.65;;;29.80;;
41653;SDS011;68687;52.030;7.110;2023-04-29T08:10:19;53.38;;;30.95;;
41653;SDS011;68687;52.030;7.110;2023-04-29T08:12:47;56.03;;;30.23;;
41653;SDS011;68687;52.030;7.110;2023-04-29T08:15:13;53.13;;;30.05;;
41653;SDS011;68687;52.030;7.110;2023-04-29T08:17:38;61.17;;;32.58;;
41653;SDS011;68687;52.030;7.110;2023-04-29T08:20:04;51.63;;;30.38;;
41653;SDS011;68687;52.030;7.110;2023-04-29T08:22:31;57.60;;;29.50;;
41653;SDS011;68687;52.030;7.110;2023-04-29T08:24:56;48.78;;;28.30;;
41653;SDS011;68687;52.030;7.110;2023-04-29T08:27:21;47.65;;;28.77;;
41653;SDS011;68687;52.030;7.110;2023-04-29T08:29:47;51.03;;;28.17;;
41653;SDS011;68687;52.030;7.110;2023-04-29T08:32:12;47.08;;;27.83;;
41653;SDS011;68687;52.030;7.110;2023-04-29T08:34:38;44.72;;;27.00;;
41653;SDS011;68687;52.030;7.110;2023-04-29T08:37:03;47.40;;;28.10;;
41653;SDS011;68687;52.030;7.110;2023-04-29T08:39:28;43.65;;;27.65;;
41653;SDS011;68687;52.030;7.110;2023-04-29T08:41:55;50.60;;;26.58;;
41653;SDS011;68687;52.030;7.110;2023-04-29T08:44:21;41.17;;;24.80;;
41653;SDS011;68687;52.030;7.110;2023-04-29T08:46:47;39.58;;;26.52;;
41653;SDS011;68687;52.030;7.110;2023-04-29T08:49:13;44.33;;;24.02;;
41653;SDS011;68687;52.030;7.110;2023-04-29T08:51:39;43.15;;;25.08;;
41653;SDS011;68687;52.030;7.110;2023-04-29T08:54:04;48.38;;;24.85;;
41653;SDS011;68687;52.030;7.110;2023-04-29T08:56:31;47.95;;;24.40;;
41653;SDS011;68687;52.030;7.110;2023-04-29T08:58:56;41.75;;;25.00;;
41653;SDS011;68687;52.030;7.110;2023-04-29T09:01:26;40.00;;;25.15;;
41653;SDS011;68687;52.030;7.110;2023-04-29T09:04:00;38.83;;;24.42;;
41653;SDS011;68687;52.030;7.110;2023-04-29T09:06:33;43.40;;;23.90;;
41653;SDS011;68687;52.030;7.110;2023-04-29T09:08:59;40.72;;;23.55;;
41653;SDS011;68687;52.030;7.110;2023-04-29T09:11:26;42.45;;;23.38;;
41653;SDS011;68687;52.030;7.110;2023-04-29T09:14:00;38.88;;;23.02;;
41653;SDS011;68687;52.030;7.110;2023-04-29T09:16:26;36.10;;;22.17;;
41653;SDS011;68687;52.030;7.110;2023-04-29T09:18:52;37.30;;;21.65;;
41653;SDS011;68687;52.030;7.110;2023-04-29T09:21:28;40.30;;;23.80;;
41653;SDS011;68687;52.030;7.110;2023-04-29T09:23:57;41.17;;;22.95;;
41653;SDS011;68687;52.030;7.110;2023-04-29T09:26:24;35.38;;;22.27;;
41653;SDS011;68687;52.030;7.110;2023-04-29T09:29:09;35.40;;;23.05;;
41653;SDS011;68687;52.030;7.110;2023-04-29T09:31:40;40.20;;;22.75;;
41653;SDS011;68687;52.030;7.110;2023-04-29T09:34:06;39.72;;;22.05;;
41653;SDS011;68687;52.030;7.110;2023-04-29T09:36:36;38.25;;;21.60;;
41653;SDS011;68687;52.030;7.110;2023-04-29T09:39:19;34.95;;;22.30;;
41653;SDS011;68687;52.030;7.110;2023-04-29T09:44:14;37.28;;;21.58;;
41653;SDS011;68687;52.030;7.110;2023-04-29T09:46:40;33.42;;;21.02;;
41653;SDS011;68687;52.030;7.110;2023-04-29T09:49:22;36.85;;;22.70;;
41653;SDS011;68687;52.030;7.110;2023-04-29T09:52:01;35.25;;;21.70;;
41653;SDS011;68687;52.030;7.110;2023-04-29T09:54:29;37.63;;;19.95;;
41653;SDS011;68687;52.030;7.110;2023-04-29T09:56:57;36.67;;;22.20;;
41653;SDS011;68687;52.030;7.110;2023-04-29T09:59:23;37.80;;;21.25;;
41653;SDS011;68687;52.030;7.110;2023-04-29T10:01:49;32.67;;;21.60;;
41653;SDS011;68687;52.030;7.110;2023-04-29T10:04:17;33.33;;;21.05;;
41653;SDS011;68687;52.030;7.110;2023-04-29T10:06:45;33.88;;;21.38;;
41653;SDS011;68687;52.030;7.110;2023-04-29T10:09:13;32.85;;;20.58;;
41653;SDS011;68687;52.030;7.110;2023-04-29T10:11:40;33.03;;;20.60;;
41653;SDS011;68687;52.030;7.110;2023-04-29T10:14:06;36.88;;;21.70;;
41653;SDS011;68687;52.030;7.110;2023-04-29T10:16:43;32.72;;;20.95;;
41653;SDS011;68687;52.030;7.110;2023-04-29T10:19:11;25.98;;;18.45;;
41653;SDS011;68687;52.030;7.110;2023-04-29T10:21:39;34.50;;;20.10;;
41653;SDS011;68687;52.030;7.110;2023-04-29T10:24:05;31.23;;;19.80;;
41653;SDS011;68687;52.030;7.110;2023-04-29T10:26:31;32.58;;;21.20;;
41653;SDS011;68687;52.030;7.110;2023-04-29T10:28:58;35.03;;;19.48;;
41653;SDS011;68687;52.030;7.110;2023-04-29T10:31:27;32.13;;;19.77;;
41653;SDS011;68687;52.030;7.110;2023-04-29T10:33:57;27.77;;;18.00;;
41653;SDS011;68687;52.030;7.110;2023-04-29T10:36:24;29.13;;;19.80;;
41653;SDS011;68687;52.030;7.110;2023-04-29T10:38:50;30.30;;;18.98;;
41653;SDS011;68687;52.030;7.110;2023-04-29T10:41:25;27.83;;;18.15;;
41653;SDS011;68687;52.030;7.110;2023-04-29T10:43:52;27.30;;;19.77;;
41653;SDS011;68687;52.030;7.110;2023-04-29T10:46:22;26.05;;;17.95;;
41653;SDS011;68687;52.030;7.110;2023-04-29T10:48:49;25.10;;;18.02;;
41653;SDS011;68687;52.030;7.110;2023-04-29T10:51:41;25.30;;;16.52;;
41653;SDS011;68687;52.030;7.110;2023-04-29T10:54:13;24.90;;;17.33;;
41653;SDS011;68687;52.030;7.110;2023-04-29T10:56:49;26.80;;;17.75;;
41653;SDS011;68687;52.030;7.110;2023-04-29T10:59:19;25.08;;;17.25;;
41653;SDS011;68687;52.030;7.110;2023-04-29T11:02:04;23.40;;;18.10;;
41653;SDS011;68687;52.030;7.110;2023-04-29T11:04:30;27.77;;;17.63;;
41653;SDS011;68687;52.030;7.110;2023-04-29T11:06:55;29.73;;;17.23;;
41653;SDS011;68687;52.030;7.110;2023-04-29T11:09:25;26.30;;;16.67;;
41653;SDS011;68687;52.030;7.110;2023-04-29T11:16:51;23.30;;;15.18;;
41653;SDS011;68687;52.030;7.110;2023-04-29T11:19:18;20.85;;;15.60;;
41653;SDS011;68687;52.030;7.110;2023-04-29T11:21:45;20.98;;;16.23;;
41653;SDS011;68687;52.030;7.110;2023-04-29T11:24:11;32.15;;;17.00;;
41653;SDS011;68687;52.030;7.110;2023-04-29T11:26:37;23.08;;;15.70;;
41653;SDS011;68687;52.030;7.110;2023-04-29T11:29:03;25.95;;;15.38;;
41653;SDS011;68687;52.030;7.110;2023-04-29T11:31:30;22.83;;;14.95;;
41653;SDS011;68687;52.030;7.110;2023-04-29T11:33:55;19.13;;;13.57;;
41653;SDS011;68687;52.030;7.110;2023-04-29T11:36:21;26.80;;;16.27;;
41653;SDS011;68687;52.030;7.110;2023-04-29T11:38:46;20.95;;;14.30;;
41653;SDS011;68687;52.030;7.110;2023-04-29T11:41:11;21.25;;;13.82;;
41653;SDS011;68687;52.030;7.110;2023-04-29T11:43:38;20.30;;;13.32;;
41653;SDS011;68687;52.030;7.110;2023-04-29T11:46:10;19.95;;;15.05;;
41653;SDS011;68687;52.030;7.110;2023-04-29T11:48:36;20.25;;;13.40;;
41653;SDS011;68687;52.030;7.110;2023-04-29T11:51:01;20.23;;;13.65;;
41653;SDS011;68687;52.030;7.110;2023-04-29T11:53:26;23.15;;;12.80;;
41653;SDS011;68687;52.030;7.110;2023-04-29T11:55:53;19.13;;;14.00;;
41653;SDS011;68687;52.030;7.110;2023-04-29T11:58:22;16.25;;;12.05;;
41653;SDS011;68687;52.030;7.110;2023-04-29T12:00:48;14.35;;;11.40;;
41653;SDS011;68687;52.030;7.110;2023-04-29T12:03:16;16.17;;;11.65;;
41653;SDS011;68687;52.030;7.110;2023-04-29T12:05:49;20.90;;;12.32;;
41653;SDS011;68687;52.030;7.110;2023-04-29T12:08:22;14.55;;;11.35;;
41653;SDS011;68687;52.030;7.110;2023-04-29T12:10:49;18.15;;;13.15;;
41653;SDS011;68687;52.030;7.110;2023-04-29T12:13:15;19.35;;;12.73;;
41653;SDS011;68687;52.030;7.110;2023-04-29T12:15:42;18.67;;;12.43;;
41653;SDS011;68687;52.030;7.110;2023-04-29T12:18:10;16.70;;;12.02;;
41653;SDS011;68687;52.030;7.110;2023-04-29T12:20:36;17.25;;;11.23;;
41653;SDS011;68687;52.030;7.110;2023-04-29T12:23:12;17.48;;;11.43;;
41653;SDS011;68687;52.030;7.110;2023-04-29T12:25:39;18.50;;;11.65;;
41653;SDS011;68687;52.030;7.110;2023-04-29T12:28:10;12.88;;;10.13;;
41653;SDS011;68687;52.030;7.110;2023-04-29T12:30:36;13.27;;;10.18;;
41653;SDS011;68687;52.030;7.110;2023-04-29T12:33:01;12.45;;;9.27;;
41653;SDS011;68687;52.030;7.110;2023-04-29T12:35:26;15.20;;;9.32;;
41653;SDS011;68687;52.030;7.110;2023-04-29T12:37:52;16.48;;;9.75;;
41653;SDS011;68687;52.030;7.110;2023-04-29T12:40:17;15.27;;;9.55;;
41653;SDS011;68687;52.030;7.110;2023-04-29T12:42:44;16.13;;;9.95;;
41653;SDS011;68687;52.030;7.110;2023-04-29T12:45:29;15.57;;;9.60;;
41653;SDS011;68687;52.030;7.110;2023-04-29T12:47:56;11.88;;;9.68;;
41653;SDS011;68687;52.030;7.110;2023-04-29T12:50:35;11.82;;;8.02;;
41653;SDS011;68687;52.030;7.110;2023-04-29T12:53:03;12.98;;;8.73;;
41653;SDS011;68687;52.030;7.110;2023-04-29T12:55:30;13.55;;;9.45;;
41653;SDS011;68687;52.030;7.110;2023-04-29T12:57:56;12.10;;;9.10;;
41653;SDS011;68687;52.030;7.110;2023-04-29T13:00:22;14.02;;;8.45;;
41653;SDS011;68687;52.030;7.110;2023-04-29T13:02:47;14.55;;;9.30;;
41653;SDS011;68687;52.030;7.110;2023-04-29T13:05:13;14.77;;;10.98;;
41653;SDS011;68687;52.030;7.110;2023-04-29T13:07:38;9.15;;;8.10;;
41653;SDS011;68687;52.030;7.110;2023-04-29T13:10:04;14.15;;;9.20;;
41653;SDS011;68687;52.030;7.110;2023-04-29T13:12:32;11.93;;;9.07;;
41653;SDS011;68687;52.030;7.110;2023-04-29T13:14:58;11.90;;;8.77;;
41653;SDS011;68687;52.030;7.110;2023-04-29T13:17:23;15.45;;;9.20;;
41653;SDS011;68687;52.030;7.110;2023-04-29T13:19:48;12.43;;;9.18;;
41653;SDS011;68687;52.030;7.110;2023-04-29T13:22:14;12.15;;;9.45;;
41653;SDS011;68687;52.030;7.110;2023-04-29T13:24:40;11.30;;;8.93;;
41653;SDS011;68687;52.030;7.110;2023-04-29T13:27:05;14.32;;;9.30;;
41653;SDS011;68687;52.030;7.110;2023-04-29T13:29:30;11.98;;;9.43;;
41653;SDS011;68687;52.030;7.110;2023-04-29T13:31:56;12.90;;;9.13;;
41653;SDS011;68687;52.030;7.110;2023-04-29T13:34:21;14.63;;;9.57;;
41653;SDS011;68687;52.030;7.110;2023-04-29T13:36:46;8.55;;;6.40;;
41653;SDS011;68687;52.030;7.110;2023-04-29T13:39:12;9.57;;;6.68;;
41653;SDS011;68687;52.030;7.110;2023-04-29T13:41:37;10.68;;;6.78;;
41653;SDS011;68687;52.030;7.110;2023-04-29T13:44:02;10.48;;;7.55;;
41653;SDS011;68687;52.030;7.110;2023-04-29T13:46:28;8.85;;;6.97;;
41653;SDS011;68687;52.030;7.110;2023-04-29T13:48:53;11.73;;;7.90;;
41653;SDS011;68687;52.030;7.110;2023-04-29T13:51:19;10.50;;;8.27;;
41653;SDS011;68687;52.030;7.110;2023-04-29T13:53:44;10.25;;;8.45;;
41653;SDS011;68687;52.030;7.110;2023-04-29T13:56:10;9.35;;;7.30;;
41653;SDS011;68687;52.030;7.110;2023-04-29T13:58:35;7.63;;;6.38;;
41653;SDS011;68687;52.030;7.110;2023-04-29T14:01:01;9.70;;;7.28;;
41653;SDS011;68687;52.030;7.110;2023-04-29T14:03:26;8.85;;;7.40;;
41653;SDS011;68687;52.030;7.110;2023-04-29T14:05:51;11.85;;;7.78;;
41653;SDS011;68687;52.030;7.110;2023-04-29T14:08:17;13.48;;;8.00;;
41653;SDS011;68687;52.030;7.110;2023-04-29T14:10:42;13.43;;;8.23;;
41653;SDS011;68687;52.030;7.110;2023-04-29T14:13:07;10.60;;;7.82;;
41653;SDS011;68687;52.030;7.110;2023-04-29T14:15:36;9.88;;;8.00;;
41653;SDS011;68687;52.030;7.110;2023-04-29T14:18:01;10.07;;;7.72;;
41653;SDS011;68687;52.030;7.110;2023-04-29T14:20:29;11.43;;;7.30;;
41653;SDS011;68687;52.030;7.110;2023-04-29T14:22:54;9.98;;;8.25;;
41653;SDS011;68687;52.030;7.110;2023-04-29T14:25:20;16.42;;;8.02;;
41653;SDS011;68687;52.030;7.110;2023-04-29T14:27:45;11.60;;;7.82;;
41653;SDS011;68687;52.030;7.110;2023-04-29T14:30:13;14.82;;;7.85;;
41653;SDS011;68687;52.030;7.110;2023-04-29T14:32:38;12.45;;;8.15;;
41653;SDS011;68687;52.030;7.110;2023-04-29T14:35:03;8.80;;;7.22;;
41653;SDS011;68687;52.030;7.110;2023-04-29T14:37:29;8.07;;;7.07;;
41653;SDS011;68687;52.030;7.110;2023-04-29T14:39:54;10.05;;;8.10;;